Time;durP1;ratioP1;P1;durP2;ratioP2;P2;SDS_P1;SDS_P2;PMS_P1;PMS_P2;Temp;Humidity;BMP_temperature;BMP_pressure;BME280_temperature;BME280_humidity;BME280_pressure;Samples;Min_cycle;Max_cycle;Signal;HPM_P1;HPM_P2
2021/12/01 00:02:00;;;;;;;4.20;1.72;;;;;;;2.28;75.18;98656.91;2122787;82;21093;-70
2021/12/01 00:05:02;;;;;;;4.50;1.72;;;;;;;2.24;75.18;98642.81;2130125;82;21030;-70
2021/12/01 00:08:04;;;;;;;3.15;1.37;;;;;;;2.22;75.16;98659.17;2131729;82;21380;-71
2021/12/01 00:11:06;;;;;;;3.27;1.70;;;;;;;2.20;75.46;98662.42;2130024;82;21542;-69
2021/12/01 00:14:08;;;;;;;2.77;1.30;;;;;;;2.16;75.44;98678.55;2133204;82;21056;-69
2021/12/01 00:17:11;;;;;;;3.15;1.40;;;;;;;2.14;75.58;98691.80;2132028;82;20983;-69
2021/12/01 00:20:15;;;;;;;3.05;1.65;;;;;;;2.15;75.74;98704.40;2129050;82;21044;-68
2021/12/01 00:23:17;;;;;;;3.80;1.47;;;;;;;2.14;75.86;98710.12;2130788;82;21568;-70
2021/12/01 00:26:19;;;;;;;3.05;1.50;;;;;;;2.11;75.65;98713.03;2126544;82;22015;-70
2021/12/01 00:29:20;;;;;;;2.12;1.47;;;;;;;2.11;75.76;98726.12;2129709;82;21020;-70
2021/12/01 00:32:22;;;;;;;2.75;1.20;;;;;;;2.13;75.75;98731.19;2133057;82;21874;-69
2021/12/01 00:35:24;;;;;;;4.47;1.60;;;;;;;2.12;75.88;98738.72;2130776;82;21067;-69
2021/12/01 00:38:28;;;;;;;2.50;1.40;;;;;;;2.10;76.06;98741.95;2124495;82;21013;-70
2021/12/01 00:41:30;;;;;;;2.75;1.35;;;;;;;2.09;75.91;98739.83;2127325;82;21129;-70
2021/12/01 00:44:34;;;;;;;1.80;1.20;;;;;;;2.09;75.98;98754.71;2129091;82;21502;-70
2021/12/01 00:47:46;;;;;;;3.30;1.27;;;;;;;2.09;76.16;98756.84;2126867;82;21063;-71
2021/12/01 00:50:48;;;;;;;5.55;1.60;;;;;;;2.09;76.12;98761.25;2125602;82;21049;-70
2021/12/01 00:53:50;;;;;;;4.10;1.45;;;;;;;2.07;76.20;98764.00;2123826;82;21551;-70
2021/12/01 00:56:52;;;;;;;2.20;1.50;;;;;;;2.06;76.27;98771.52;2122264;82;21534;-69
2021/12/01 00:59:54;;;;;;;4.75;1.52;;;;;;;2.04;76.42;98785.22;2127555;82;21602;-70
2021/12/01 01:02:57;;;;;;;4.35;1.67;;;;;;;2.01;76.56;98788.13;2125114;82;21076;-70
2021/12/01 01:05:59;;;;;;;2.80;1.70;;;;;;;1.99;76.52;98790.88;2130615;82;21526;-69
2021/12/01 01:09:05;;;;;;;3.50;1.42;;;;;;;1.98;76.50;98802.33;2131712;82;20998;-70
2021/12/01 01:18:51;;;;;;;2.62;1.45;;;;;;;1.95;76.50;98829.27;2127393;82;21006;-71
2021/12/01 01:21:55;;;;;;;4.00;1.42;;;;;;;1.94;76.62;98831.52;2129754;82;21010;-70
2021/12/01 01:24:56;;;;;;;4.00;1.57;;;;;;;1.92;76.84;98842.14;2133935;82;21055;-70
2021/12/01 01:27:58;;;;;;;3.98;1.70;;;;;;;1.91;76.82;98842.27;2125689;82;21469;-70
2021/12/01 01:31:01;;;;;;;3.10;1.57;;;;;;;1.90;76.76;98842.77;2127204;82;21083;-70
2021/12/01 01:34:03;;;;;;;2.27;1.22;;;;;;;1.90;76.75;98843.25;2132802;82;21042;-71
2021/12/01 01:37:05;;;;;;;3.02;1.32;;;;;;;1.88;76.81;98850.41;2132154;82;21083;-72
2021/12/01 01:40:09;;;;;;;2.83;1.22;;;;;;;1.89;76.83;98856.00;2128832;82;21037;-70
2021/12/01 01:43:11;;;;;;;2.55;1.40;;;;;;;1.89;76.94;98867.77;2125712;82;21011;-70
2021/12/01 01:46:14;;;;;;;2.77;1.45;;;;;;;1.90;76.82;98872.03;2131582;82;20966;-70
2021/12/01 01:49:20;;;;;;;6.05;1.57;;;;;;;1.89;76.94;98886.09;2126426;82;21019;-71
2021/12/01 01:52:22;;;;;;;2.45;1.87;;;;;;;1.88;76.81;98883.92;2134113;82;20993;-71
2021/12/01 01:55:23;;;;;;;2.02;1.20;;;;;;;1.88;76.85;98892.27;2128981;82;21551;-70
2021/12/01 01:58:27;;;;;;;2.72;1.15;;;;;;;1.89;76.73;98891.31;2122276;82;22164;-71
2021/12/01 02:04:44;;;;;;;3.05;1.50;;;;;;;1.89;76.75;98899.98;2126912;82;20983;-71
2021/12/01 02:07:46;;;;;;;2.55;1.40;;;;;;;1.89;76.83;98901.78;2127577;82;21425;-70
2021/12/01 02:10:49;;;;;;;3.25;1.40;;;;;;;1.89;76.86;98910.94;2124152;82;22074;-70
2021/12/01 02:13:51;;;;;;;2.67;1.40;;;;;;;1.89;76.93;98912.24;2126193;82;21042;-71
2021/12/01 02:16:55;;;;;;;3.20;1.50;;;;;;;1.88;77.07;98909.27;2120731;82;21024;-71
2021/12/01 02:19:56;;;;;;;1.85;1.60;;;;;;;1.87;77.07;98919.40;2121783;82;21387;-71
2021/12/01 02:23:00;;;;;;;2.72;1.55;;;;;;;1.84;77.18;98906.11;2118992;82;21535;-70
2021/12/01 02:26:03;;;;;;;3.50;1.37;;;;;;;1.83;77.24;98908.86;2126354;82;21038;-70
2021/12/01 02:29:09;;;;;;;3.50;1.87;;;;;;;1.81;77.26;98908.20;2120578;82;21437;-71
2021/12/01 02:32:11;;;;;;;4.08;1.42;;;;;;;1.78;77.35;98919.27;2126156;82;21527;-71
2021/12/01 02:35:12;;;;;;;4.62;1.35;;;;;;;1.74;77.25;98929.65;2123333;82;21555;-71
2021/12/01 02:38:14;;;;;;;3.65;1.20;;;;;;;1.71;77.30;98935.65;2127813;82;20996;-70
2021/12/01 02:41:18;;;;;;;3.27;1.57;;;;;;;1.70;77.40;98938.75;2097908;82;21006;-70
2021/12/01 02:44:21;;;;;;;1.80;1.47;;;;;;;1.66;77.40;98936.09;2104022;82;21036;-71
2021/12/01 02:47:28;;;;;;;2.27;1.60;;;;;;;1.62;77.50;98949.08;2125820;82;21039;-71
2021/12/01 02:50:29;;;;;;;3.22;1.60;;;;;;;1.57;77.51;98953.89;2126769;82;21022;-71
2021/12/01 02:53:31;;;;;;;2.85;1.37;;;;;;;1.51;77.56;98960.98;2123338;82;21445;-70
2021/12/01 02:56:36;;;;;;;3.30;1.77;;;;;;;1.44;77.58;98968.55;2120221;82;21044;-70
2021/12/01 02:59:39;;;;;;;4.97;1.70;;;;;;;1.38;77.64;98977.41;2122359;82;20965;-71
2021/12/01 03:02:41;;;;;;;2.60;1.50;;;;;;;1.34;77.79;98987.31;2125577;82;21045;-70
2021/12/01 03:05:48;;;;;;;3.52;2.10;;;;;;;1.31;77.94;98986.28;2103741;82;21084;-71
2021/12/01 03:08:51;;;;;;;2.90;1.57;;;;;;;1.31;78.08;98990.20;2124324;82;21083;-71
2021/12/01 03:11:52;;;;;;;3.02;1.60;;;;;;;1.31;78.15;98989.71;2120189;82;21492;-71
2021/12/01 03:14:54;;;;;;;5.60;2.15;;;;;;;1.30;78.15;98987.25;2129672;82;21064;-71
2021/12/01 03:17:56;;;;;;;2.47;2.02;;;;;;;1.28;78.14;98987.37;2133846;82;21024;-70
2021/12/01 03:20:58;;;;;;;10.18;3.10;;;;;;;1.26;78.16;98987.98;2121785;82;21394;-71
2021/12/01 03:24:00;;;;;;;4.90;2.92;;;;;;;1.21;78.09;98982.36;2125265;82;21070;-71
2021/12/01 03:27:01;;;;;;;4.50;1.85;;;;;;;1.20;78.06;98987.22;2135498;82;21647;-71
2021/12/01 03:30:08;;;;;;;3.70;1.82;;;;;;;1.16;78.04;98991.07;2125770;82;20944;-71
2021/12/01 03:33:15;;;;;;;3.70;1.70;;;;;;;1.13;78.06;98999.19;2123966;82;21424;-71
2021/12/01 03:36:16;;;;;;;4.80;2.15;;;;;;;1.06;78.11;98990.21;2119233;82;20980;-72
2021/12/01 03:39:18;;;;;;;4.78;1.80;;;;;;;1.04;78.21;98989.52;2122377;82;20954;-71
2021/12/01 03:42:19;;;;;;;5.25;2.10;;;;;;;1.01;78.16;98981.45;2127593;82;21414;-71
2021/12/01 03:45:21;;;;;;;5.53;1.37;;;;;;;1.03;78.30;98978.73;2131067;82;20930;-71
2021/12/01 03:48:23;;;;;;;4.55;1.65;;;;;;;1.03;78.27;98977.42;2125056;82;21554;-71
2021/12/01 03:51:25;;;;;;;3.67;1.47;;;;;;;1.03;78.25;98969.58;2124396;82;21084;-71
2021/12/01 03:54:27;;;;;;;3.80;1.62;;;;;;;1.03;78.27;98959.95;2134367;82;20946;-70
2021/12/01 03:57:28;;;;;;;6.22;1.50;;;;;;;0.99;78.23;98960.38;2130689;82;21014;-71
2021/12/01 04:00:30;;;;;;;2.52;1.30;;;;;;;0.95;78.23;98960.28;2132461;82;21083;-70
2021/12/01 04:03:32;;;;;;;5.12;2.08;;;;;;;0.82;78.17;98957.44;2128717;82;21547;-72
2021/12/01 04:06:33;;;;;;;4.80;1.60;;;;;;;0.75;78.40;98957.61;2134258;82;21022;-71
2021/12/01 04:09:38;;;;;;;3.83;1.40;;;;;;;0.70;78.54;98954.56;2126778;82;21037;-71
2021/12/01 04:12:41;;;;;;;5.08;1.70;;;;;;;0.68;78.71;98952.59;2133826;82;20939;-70
2021/12/01 04:15:43;;;;;;;4.25;1.77;;;;;;;0.67;78.77;98953.52;2128579;82;20995;-71
2021/12/01 04:18:45;;;;;;;5.62;2.22;;;;;;;0.67;78.72;98956.13;2125129;82;21001;-71
2021/12/01 04:21:47;;;;;;;5.35;2.02;;;;;;;0.65;78.77;98958.89;2129775;82;21003;-71
2021/12/01 04:24:49;;;;;;;4.30;1.85;;;;;;;0.62;78.78;98957.86;2127190;82;21058;-71
2021/12/01 04:27:50;;;;;;;5.37;1.70;;;;;;;0.55;78.91;98944.97;2124593;82;21026;-72
2021/12/01 04:30:52;;;;;;;5.40;2.17;;;;;;;0.51;78.96;98950.11;2125997;82;20994;-71
2021/12/01 04:33:54;;;;;;;3.67;2.12;;;;;;;0.50;79.08;98943.70;2132402;82;21517;-72
2021/12/01 04:36:55;;;;;;;4.60;2.62;;;;;;;0.54;79.23;98946.42;2123673;82;22276;-70
2021/12/01 04:39:57;;;;;;;9.15;2.70;;;;;;;0.61;79.23;98944.44;2129122;82;21087;-70
2021/12/01 04:42:58;;;;;;;10.50;3.33;;;;;;;0.66;79.24;98942.74;2127339;82;21011;-71
2021/12/01 04:46:00;;;;;;;12.35;3.10;;;;;;;0.70;79.23;98940.20;2133738;82;20995;-71
2021/12/01 04:49:02;;;;;;;9.93;2.80;;;;;;;0.71;79.12;98947.58;2130039;82;21001;-71
2021/12/01 04:52:05;;;;;;;9.48;2.52;;;;;;;0.68;79.22;98942.14;2130285;82;20973;-70
2021/12/01 04:55:09;;;;;;;4.35;2.62;;;;;;;0.65;79.08;98946.33;2128258;82;20998;-70
2021/12/01 04:58:11;;;;;;;3.45;2.30;;;;;;;0.59;79.01;98934.63;2134895;82;21047;-71
2021/12/01 05:01:12;;;;;;;3.17;2.00;;;;;;;0.55;79.05;98939.75;2122780;82;21040;-72
2021/12/01 05:04:14;;;;;;;6.55;2.55;;;;;;;0.52;79.08;98944.41;2130173;82;21106;-70
2021/12/01 05:07:17;;;;;;;12.10;4.03;;;;;;;0.53;79.16;98946.88;2125073;82;21017;-72
2021/12/01 05:10:18;;;;;;;7.50;3.60;;;;;;;0.53;79.10;98940.34;2129921;82;21057;-72
2021/12/01 05:13:21;;;;;;;8.18;3.12;;;;;;;0.51;79.04;98945.34;2124523;82;20950;-71
2021/12/01 05:16:23;;;;;;;7.65;3.55;;;;;;;0.47;79.04;98947.89;2120746;82;21423;-71
2021/12/01 05:19:25;;;;;;;11.90;4.17;;;;;;;0.44;79.15;98946.36;2124404;82;21028;-69
2021/12/01 05:22:27;;;;;;;10.10;3.77;;;;;;;0.45;79.19;98944.09;2117469;82;20969;-71
2021/12/01 05:25:28;;;;;;;12.98;3.62;;;;;;;0.45;79.18;98946.70;2118932;82;21012;-71
2021/12/01 05:28:30;;;;;;;16.87;5.60;;;;;;;0.44;79.19;98937.23;2131200;82;21038;-71
2021/12/01 05:31:32;;;;;;;13.95;5.42;;;;;;;0.44;79.13;98934.13;2118878;82;21484;-71
2021/12/01 05:34:34;;;;;;;12.43;4.70;;;;;;;0.42;79.09;98942.59;2129159;82;20966;-71
2021/12/01 05:37:35;;;;;;;6.95;3.22;;;;;;;0.43;79.33;98938.20;2123450;82;21045;-71
2021/12/01 05:40:37;;;;;;;13.55;4.20;;;;;;;0.45;79.16;98946.70;2128129;82;21033;-71
2021/12/01 05:43:39;;;;;;;7.62;3.40;;;;;;;0.47;79.20;98941.36;2121778;82;21031;-70
2021/12/01 05:46:40;;;;;;;8.98;3.80;;;;;;;0.42;79.04;98950.88;2123467;82;21010;-72
2021/12/01 05:49:43;;;;;;;5.78;3.10;;;;;;;0.40;79.22;98945.80;2122856;82;21422;-72
2021/12/01 05:52:44;;;;;;;4.28;2.75;;;;;;;0.38;79.07;98940.37;2118816;82;20979;-71
2021/12/01 05:55:46;;;;;;;4.92;2.67;;;;;;;0.34;79.19;98931.98;2120704;82;21055;-72
2021/12/01 05:58:48;;;;;;;9.48;3.67;;;;;;;0.36;79.19;98927.92;2119577;82;21057;-72
2021/12/01 06:01:49;;;;;;;8.33;3.50;;;;;;;0.32;79.05;98918.23;2126515;82;21501;-73
2021/12/01 06:04:51;;;;;;;6.53;3.25;;;;;;;0.27;78.93;98912.57;2138583;82;21071;-74
2021/12/01 06:07:53;;;;;;;5.97;2.90;;;;;;;0.25;79.18;98907.95;2134230;82;20987;-76
2021/12/01 06:10:55;;;;;;;6.58;2.70;;;;;;;0.22;79.24;98903.82;2133112;82;21041;-77
2021/12/01 06:13:57;;;;;;;8.70;4.22;;;;;;;0.25;79.30;98901.91;2126287;82;20974;-74
2021/12/01 06:16:59;;;;;;;10.05;3.40;;;;;;;0.19;79.24;98900.66;2131636;82;21017;-73
2021/12/01 06:20:01;;;;;;;7.17;2.52;;;;;;;0.16;79.77;98900.44;2132703;82;21049;-75
2021/12/01 06:23:03;;;;;;;5.08;2.55;;;;;;;0.12;79.58;98895.63;2130349;82;21035;-72
2021/12/01 06:26:04;;;;;;;5.05;2.35;;;;;;;0.06;79.73;98899.58;2131011;82;20988;-71
2021/12/01 06:29:06;;;;;;;9.93;3.12;;;;;;;0.02;79.84;98895.56;2127096;82;21479;-72
2021/12/01 06:32:08;;;;;;;15.32;4.47;;;;;;;-0.02;79.97;98896.30;2133029;82;21416;-72
2021/12/01 06:35:10;;;;;;;14.87;5.22;;;;;;;-0.02;80.29;98891.57;2132667;82;20958;-72
2021/12/01 06:38:11;;;;;;;16.70;6.25;;;;;;;-0.04;80.50;98881.25;2127681;82;21639;-72
2021/12/01 06:41:13;;;;;;;14.80;4.95;;;;;;;-0.04;80.62;98879.95;2137901;82;21036;-73
2021/12/01 06:44:15;;;;;;;10.35;4.22;;;;;;;-0.03;80.68;98873.80;2131616;82;21027;-72
2021/12/01 06:47:17;;;;;;;12.88;4.45;;;;;;;-0.01;80.78;98874.47;2120804;82;21088;-72
2021/12/01 06:50:19;;;;;;;15.13;4.42;;;;;;;0.02;80.91;98869.96;2133628;82;21027;-72
2021/12/01 06:53:20;;;;;;;8.98;3.83;;;;;;;0.04;80.99;98875.88;2123250;82;21476;-72
2021/12/01 06:56:22;;;;;;;10.05;4.60;;;;;;;0.04;81.19;98878.01;2130915;82;21095;-72
2021/12/01 06:59:24;;;;;;;14.03;4.20;;;;;;;0.05;81.25;98869.70;2130968;82;22369;-72
2021/12/01 07:02:26;;;;;;;10.43;3.55;;;;;;;0.03;81.41;98861.17;2123412;82;21074;-72
2021/12/01 07:05:28;;;;;;;14.45;3.92;;;;;;;0.03;81.33;98856.81;2121969;82;20980;-72
2021/12/01 07:08:29;;;;;;;9.68;3.45;;;;;;;0.04;81.59;98842.80;2124156;82;21053;-74
2021/12/01 07:11:31;;;;;;;6.47;2.92;;;;;;;0.05;81.44;98841.02;2122655;82;20933;-73
2021/12/01 07:14:33;;;;;;;12.28;4.30;;;;;;;0.06;81.49;98841.34;2130501;82;20939;-73
2021/12/01 07:17:35;;;;;;;9.08;3.60;;;;;;;0.08;81.51;98836.83;2126369;82;21474;-72
2021/12/01 07:20:37;;;;;;;8.83;3.67;;;;;;;0.08;81.50;98821.19;2129728;82;20958;-72
2021/12/01 07:23:38;;;;;;;7.15;3.67;;;;;;;0.12;81.67;98814.77;2124756;82;21029;-70
2021/12/01 07:26:40;;;;;;;13.88;3.55;;;;;;;0.14;81.80;98805.85;2128100;82;21013;-72
2021/12/01 07:29:43;;;;;;;11.12;3.60;;;;;;;0.16;81.82;98799.18;2125403;82;21035;-72
2021/12/01 07:32:44;;;;;;;12.58;3.95;;;;;;;0.22;81.74;98798.16;2120930;82;21028;-72
2021/12/01 07:35:46;;;;;;;10.00;3.90;;;;;;;0.32;81.87;98790.86;2125994;82;21031;-72
2021/12/01 07:38:50;;;;;;;9.80;3.47;;;;;;;0.38;81.70;98782.00;2131191;82;21041;-72
2021/12/01 07:41:51;;;;;;;14.15;3.87;;;;;;;0.43;81.69;98775.09;2121934;82;21055;-72
2021/12/01 07:44:53;;;;;;;12.05;3.92;;;;;;;0.45;81.66;98773.14;2130697;82;20978;-72
2021/12/01 07:47:54;;;;;;;10.90;3.77;;;;;;;0.49;81.67;98767.20;2128926;82;21009;-72
2021/12/01 07:50:56;;;;;;;14.05;4.22;;;;;;;0.53;81.66;98751.11;2125271;82;21069;-72
2021/12/01 07:53:58;;;;;;;9.45;3.95;;;;;;;0.62;81.63;98752.07;2127900;82;21469;-71
2021/12/01 07:57:01;;;;;;;11.12;3.92;;;;;;;0.74;81.58;98740.55;2129331;82;21079;-71
2021/12/01 08:00:05;;;;;;;13.35;5.00;;;;;;;0.86;81.53;98728.98;2127811;82;21472;-72
2021/12/01 08:03:06;;;;;;;14.75;4.67;;;;;;;0.96;81.35;98728.15;2125309;82;21030;-71
2021/12/01 08:06:08;;;;;;;14.30;5.28;;;;;;;1.02;81.18;98721.08;2128006;82;21511;-72
2021/12/01 08:09:11;;;;;;;14.43;4.85;;;;;;;1.07;80.93;98722.31;2123076;82;21042;-71
2021/12/01 08:12:12;;;;;;;12.23;5.10;;;;;;;1.14;80.67;98719.95;2124841;82;20950;-71
2021/12/01 08:15:14;;;;;;;16.12;5.12;;;;;;;1.20;80.39;98721.17;2125902;82;21005;-72
2021/12/01 08:18:18;;;;;;;18.27;6.03;;;;;;;1.26;80.24;98713.59;2122759;82;21055;-71
2021/12/01 08:21:21;;;;;;;15.43;5.75;;;;;;;1.32;80.33;98710.89;2121949;82;21058;-72
2021/12/01 08:24:23;;;;;;;16.42;5.42;;;;;;;1.37;80.29;98709.98;2123475;82;21042;-71
2021/12/01 08:27:27;;;;;;;15.63;5.10;;;;;;;1.41;80.28;98702.67;2130453;82;21052;-71
2021/12/01 08:30:30;;;;;;;18.48;5.75;;;;;;;1.43;79.94;98693.72;2124444;82;21462;-71
2021/12/01 08:33:32;;;;;;;17.37;6.28;;;;;;;1.49;80.22;98700.17;2122114;82;20985;-71
2021/12/01 08:36:34;;;;;;;25.77;6.90;;;;;;;1.56;80.07;98693.41;2116713;82;20976;-71
2021/12/01 08:39:36;;;;;;;17.15;6.33;;;;;;;1.60;80.10;98686.91;2122145;82;21050;-71
2021/12/01 08:42:37;;;;;;;22.70;6.67;;;;;;;1.63;79.85;98686.62;2121211;82;21449;-71
2021/12/01 08:45:39;;;;;;;23.62;6.65;;;;;;;1.65;79.73;98691.72;2125193;82;21077;-71
2021/12/01 08:48:41;;;;;;;15.65;5.58;;;;;;;1.68;79.92;98677.86;2127854;82;21046;-73
2021/12/01 08:51:42;;;;;;;15.38;5.47;;;;;;;1.72;80.00;98670.58;2124279;82;21093;-72
2021/12/01 08:54:44;;;;;;;20.15;7.30;;;;;;;1.76;80.16;98668.81;2123050;82;21487;-71
2021/12/01 08:57:46;;;;;;;15.32;5.78;;;;;;;1.79;80.15;98659.36;2113051;82;21040;-71
2021/12/01 09:00:48;;;;;;;18.67;5.65;;;;;;;1.82;80.11;98653.51;2121653;82;20951;-71
2021/12/01 09:03:50;;;;;;;15.70;5.50;;;;;;;1.85;80.25;98654.52;2118702;82;21089;-71
2021/12/01 09:06:52;;;;;;;17.02;5.97;;;;;;;1.86;80.45;98654.84;2115256;82;21055;-71
2021/12/01 09:09:54;;;;;;;15.10;5.60;;;;;;;1.85;80.29;98638.34;2117401;82;21059;-71
2021/12/01 09:12:55;;;;;;;15.60;5.62;;;;;;;1.87;80.46;98631.66;2111975;82;20963;-71
2021/12/01 09:15:57;;;;;;;17.30;6.33;;;;;;;1.90;80.30;98633.98;2126182;82;21014;-70
2021/12/01 09:19:00;;;;;;;18.25;5.90;;;;;;;1.90;80.11;98616.98;2117165;82;21904;-71
2021/12/01 09:22:02;;;;;;;16.52;6.47;;;;;;;1.93;80.51;98614.06;2115622;82;21629;-71
2021/12/01 09:25:05;;;;;;;21.75;6.90;;;;;;;1.99;80.76;98606.92;2112457;82;21031;-71
2021/12/01 09:28:06;;;;;;;21.10;6.72;;;;;;;2.04;80.93;98594.72;2119259;82;21036;-71
2021/12/01 09:31:08;;;;;;;20.37;7.97;;;;;;;2.09;80.95;98587.25;2114384;82;22178;-71
2021/12/01 09:34:09;;;;;;;21.73;6.60;;;;;;;2.14;81.06;98587.13;2118089;82;21038;-71
2021/12/01 09:37:11;;;;;;;18.25;6.85;;;;;;;2.17;80.79;98581.59;2115677;82;21056;-72
2021/12/01 09:40:19;;;;;;;15.20;5.75;;;;;;;2.18;80.93;98570.14;2116577;82;21488;-71
2021/12/01 09:43:25;;;;;;;21.73;6.72;;;;;;;2.18;80.69;98563.60;2127200;82;21862;-71
2021/12/01 09:46:30;;;;;;;15.68;6.37;;;;;;;2.15;80.41;98559.98;2118600;82;21020;-71
2021/12/01 09:49:32;;;;;;;14.63;5.72;;;;;;;2.13;80.74;98558.48;2115033;82;21077;-70
2021/12/01 09:52:34;;;;;;;21.62;6.55;;;;;;;2.12;80.77;98550.31;2117823;82;21057;-71
2021/12/01 09:55:36;;;;;;;15.32;6.03;;;;;;;2.12;80.71;98552.44;2115121;82;21060;-71
2021/12/01 09:58:38;;;;;;;13.78;6.10;;;;;;;2.13;80.73;98545.41;2116630;82;21015;-71
2021/12/01 10:01:40;;;;;;;16.48;6.12;;;;;;;2.13;80.93;98543.60;2111521;82;20952;-71
2021/12/01 10:04:42;;;;;;;17.65;6.03;;;;;;;2.12;81.06;98532.81;2118732;82;21049;-71
2021/12/01 10:07:43;;;;;;;18.92;6.03;;;;;;;2.12;81.14;98522.34;2126328;82;21072;-69
2021/12/01 10:10:46;;;;;;;18.40;6.55;;;;;;;2.15;81.58;98520.73;2121004;82;21017;-71
2021/12/01 10:14:01;;;;;;;15.03;6.00;;;;;;;2.19;81.62;98521.23;2123087;82;20982;-70
2021/12/01 10:17:03;;;;;;;15.80;6.60;;;;;;;2.26;81.57;98509.69;2125691;82;21073;-71
2021/12/01 10:20:18;;;;;;;19.15;7.00;;;;;;;2.32;81.62;98510.38;2134258;82;21475;-71
2021/12/01 10:23:19;;;;;;;15.88;5.55;;;;;;;2.39;81.83;98514.86;2120089;82;21553;-72
2021/12/01 10:26:26;;;;;;;16.25;6.15;;;;;;;2.44;81.79;98507.34;2124903;82;21445;-70
2021/12/01 10:29:34;;;;;;;12.65;5.60;;;;;;;2.49;81.86;98490.36;2120111;82;21015;-70
2021/12/01 10:32:36;;;;;;;15.85;5.97;;;;;;;2.52;81.84;98485.63;2128572;82;21607;-70
2021/12/01 10:35:39;;;;;;;16.70;6.53;;;;;;;2.59;82.06;98482.73;2125879;82;21010;-70
2021/12/01 10:38:45;;;;;;;11.93;5.33;;;;;;;2.68;82.11;98477.86;2124320;82;21508;-70
2021/12/01 10:41:46;;;;;;;10.08;5.35;;;;;;;2.74;81.91;98471.18;2130000;82;21030;-70
2021/12/01 10:45:01;;;;;;;14.03;5.33;;;;;;;2.79;81.82;98477.23;2130529;82;21028;-70
2021/12/01 10:48:06;;;;;;;17.30;5.72;;;;;;;2.88;82.10;98475.01;2130664;82;20966;-70
2021/12/01 10:51:16;;;;;;;11.48;4.60;;;;;;;2.97;81.94;98467.50;2124475;82;21041;-70
2021/12/01 10:54:20;;;;;;;12.30;5.72;;;;;;;3.03;82.06;98460.31;2121042;82;21024;-69
2021/12/01 10:57:23;;;;;;;14.95;5.92;;;;;;;3.10;81.85;98449.53;2123749;82;21026;-69
2021/12/01 11:00:33;;;;;;;14.23;6.08;;;;;;;3.17;82.06;98441.84;2127861;82;20981;-69
2021/12/01 11:03:36;;;;;;;12.98;5.85;;;;;;;3.26;81.79;98431.70;2123451;82;21109;-69
2021/12/01 11:06:41;;;;;;;13.90;5.40;;;;;;;3.32;81.78;98427.61;2119758;82;21462;-69
2021/12/01 11:09:43;;;;;;;14.53;6.05;;;;;;;3.39;81.78;98414.70;2122157;82;20954;-69
2021/12/01 11:13:01;;;;;;;15.75;5.60;;;;;;;3.43;81.94;98412.88;2121897;82;20995;-69
2021/12/01 11:16:09;;;;;;;14.43;6.08;;;;;;;3.46;81.74;98404.68;2122620;82;21056;-69
2021/12/01 11:19:11;;;;;;;13.45;5.10;;;;;;;3.51;82.05;98390.59;2127128;82;20955;-69
2021/12/01 11:22:28;;;;;;;17.62;6.17;;;;;;;3.53;81.73;98378.14;2127316;82;21043;-69
2021/12/01 11:25:31;;;;;;;12.53;5.17;;;;;;;3.57;82.21;98366.33;2129246;82;21088;-69
2021/12/01 11:28:37;;;;;;;15.58;5.65;;;;;;;3.60;82.16;98361.25;2123314;82;21111;-69
2021/12/01 11:31:43;;;;;;;11.88;4.83;;;;;;;3.65;82.50;98358.14;2126197;82;21104;-69
2021/12/01 11:34:48;;;;;;;12.25;5.35;;;;;;;3.73;82.66;98338.46;2120589;82;20959;-69
2021/12/01 11:37:55;;;;;;;10.48;5.58;;;;;;;3.80;82.78;98340.73;2132664;82;21003;-70
2021/12/01 11:40:56;;;;;;;11.03;4.80;;;;;;;3.83;82.88;98314.19;2130033;82;21036;-69
2021/12/01 11:43:59;;;;;;;11.18;5.22;;;;;;;3.86;82.99;98315.16;2118775;82;21319;-69
2021/12/01 11:47:00;;;;;;;10.28;4.60;;;;;;;3.92;83.00;98307.92;2125095;82;21525;-69
2021/12/01 11:50:03;;;;;;;9.53;3.95;;;;;;;3.95;83.30;98287.91;2130522;82;21005;-69
2021/12/01 11:53:20;;;;;;;7.83;3.90;;;;;;;3.99;83.17;98281.31;2102113;82;21008;-69
2021/12/01 11:56:30;;;;;;;5.60;3.40;;;;;;;4.03;83.30;98280.00;2118264;82;21104;-69
2021/12/01 11:59:37;;;;;;;7.53;3.72;;;;;;;4.09;83.34;98261.95;2093428;82;20977;-67
2021/12/01 12:02:39;;;;;;;6.35;3.67;;;;;;;4.14;83.43;98263.07;2123486;82;22697;-69
2021/12/01 12:05:41;;;;;;;6.12;3.37;;;;;;;4.18;83.42;98255.16;2118953;82;21029;-69
2021/12/01 12:09:02;;;;;;;6.10;3.00;;;;;;;4.18;83.51;98246.48;2122231;82;21509;-70
2021/12/01 12:12:12;;;;;;;5.75;3.15;;;;;;;4.19;83.68;98237.59;2125356;82;21721;-70
2021/12/01 12:15:48;;;;;;;11.93;5.95;;;;;;;4.17;83.66;98235.66;2123236;82;21067;-70
2021/12/01 12:18:52;;;;;;;6.33;3.45;;;;;;;4.16;83.79;98211.20;2124528;82;21520;-70
2021/12/01 12:22:01;;;;;;;7.78;3.90;;;;;;;4.17;83.65;98209.41;2128180;82;21103;-70
2021/12/01 12:25:08;;;;;;;7.08;3.30;;;;;;;4.16;83.76;98203.32;2125893;82;21055;-70
2021/12/01 12:28:27;;;;;;;5.90;3.30;;;;;;;4.19;83.78;98196.91;2123703;82;21012;-70
2021/12/01 12:31:29;;;;;;;6.03;2.87;;;;;;;4.20;83.85;98194.63;2125623;82;21013;-70
2021/12/01 12:34:31;;;;;;;6.87;3.60;;;;;;;4.20;83.68;98192.81;2120306;82;21006;-69
2021/12/01 12:37:35;;;;;;;6.37;3.25;;;;;;;4.22;83.67;98204.44;2117286;82;21468;-70
2021/12/01 12:40:36;;;;;;;12.43;5.35;;;;;;;4.28;83.72;98198.52;2116343;82;21068;-70
2021/12/01 12:43:42;;;;;;;6.47;3.10;;;;;;;4.35;83.74;98200.76;2121801;82;21049;-70
2021/12/01 12:46:52;;;;;;;6.53;3.30;;;;;;;4.40;83.74;98191.87;2126702;82;21508;-70
2021/12/01 12:50:00;;;;;;;5.05;3.00;;;;;;;4.45;83.55;98188.73;2123358;82;21017;-71
2021/12/01 12:53:08;;;;;;;8.30;3.40;;;;;;;4.43;83.42;98170.51;2120062;82;21029;-70
2021/12/01 12:56:23;;;;;;;8.30;2.85;;;;;;;4.43;83.40;98163.94;2121719;82;21049;-70
2021/12/01 12:59:29;;;;;;;7.67;3.60;;;;;;;4.42;83.39;98159.70;2115838;82;21076;-71
2021/12/01 13:02:31;;;;;;;7.10;3.55;;;;;;;4.42;83.37;98153.12;2123680;82;20985;-71
2021/12/01 13:05:38;;;;;;;9.20;3.87;;;;;;;4.43;83.45;98158.69;2129075;82;21101;-71
2021/12/01 13:08:45;;;;;;;7.62;3.77;;;;;;;4.51;83.47;98151.76;2126059;82;21097;-70
2021/12/01 13:11:50;;;;;;;5.97;3.25;;;;;;;4.54;83.14;98161.91;2129477;82;20994;-70
2021/12/01 13:14:51;;;;;;;6.05;3.17;;;;;;;4.57;83.08;98166.81;2120797;82;21036;-70
2021/12/01 13:18:00;;;;;;;7.00;3.08;;;;;;;4.60;83.02;98158.58;2099905;82;20994;-70
2021/12/01 13:21:08;;;;;;;5.70;3.05;;;;;;;4.63;83.06;98152.46;2119512;82;21026;-70
2021/12/01 13:24:10;;;;;;;5.92;2.90;;;;;;;4.68;82.86;98146.19;2125755;82;20994;-70
2021/12/01 13:27:11;;;;;;;6.45;3.40;;;;;;;4.71;82.37;98138.45;2122126;82;21000;-70
2021/12/01 13:30:15;;;;;;;5.75;3.20;;;;;;;4.71;82.54;98131.88;2121112;82;21048;-71
2021/12/01 13:33:17;;;;;;;9.65;3.42;;;;;;;4.69;82.31;98133.36;2118492;82;21063;-71
2021/12/01 13:36:19;;;;;;;6.15;3.50;;;;;;;4.70;82.48;98124.97;2119771;82;21065;-71
2021/12/01 13:39:39;;;;;;;5.55;2.70;;;;;;;4.72;82.40;98133.00;2118475;82;20980;-70
2021/12/01 13:42:41;;;;;;;9.90;4.17;;;;;;;4.77;82.31;98123.28;2118621;82;20972;-70
2021/12/01 13:45:59;;;;;;;7.17;3.60;;;;;;;4.83;82.30;98119.94;2117134;82;21051;-71
2021/12/01 13:49:03;;;;;;;5.45;3.45;;;;;;;4.87;81.93;98128.27;2123729;82;21585;-71
2021/12/01 13:52:07;;;;;;;18.67;8.43;;;;;;;4.91;81.84;98121.17;2128488;82;21040;-71
2021/12/01 13:55:32;;;;;;;12.30;5.33;;;;;;;4.96;81.73;98125.91;2123494;82;21017;-71
2021/12/01 13:58:34;;;;;;;9.88;4.28;;;;;;;5.01;81.61;98112.20;2123879;82;21087;-71
2021/12/01 14:01:36;;;;;;;23.95;8.85;;;;;;;5.09;81.38;98109.50;2119473;82;21524;-71
2021/12/01 14:04:39;;;;;;;28.65;11.68;;;;;;;5.14;81.06;98097.94;2119021;82;21050;-71
2021/12/01 14:07:47;;;;;;;12.95;5.75;;;;;;;5.20;80.78;98104.30;2122278;82;21069;-70
2021/12/01 14:11:24;;;;;;;23.10;9.23;;;;;;;5.25;80.98;98099.31;2120605;82;21726;-71
2021/12/01 14:14:26;;;;;;;13.75;6.47;;;;;;;5.26;80.84;98088.59;2110122;82;21489;-71
2021/12/01 14:17:29;;;;;;;9.10;4.30;;;;;;;5.26;80.79;98100.42;2120172;82;20986;-71
2021/12/01 14:20:31;;;;;;;5.87;3.08;;;;;;;5.25;80.61;98084.84;2126005;82;21014;-71
2021/12/01 14:23:32;;;;;;;4.78;2.98;;;;;;;5.23;80.52;98073.19;2107096;82;21025;-71
2021/12/01 14:26:39;;;;;;;8.50;5.50;;;;;;;5.23;80.40;98074.50;2109967;82;21031;-71
2021/12/01 14:29:41;;;;;;;8.75;5.28;;;;;;;5.22;80.35;98066.30;2120893;82;20990;-71
2021/12/01 14:32:46;;;;;;;9.13;5.05;;;;;;;5.23;80.32;98054.78;2115519;82;22038;-70
2021/12/01 14:36:02;;;;;;;7.83;4.33;;;;;;;5.22;80.24;98059.73;2121312;82;21018;-70
2021/12/01 14:39:09;;;;;;;7.72;4.25;;;;;;;5.18;80.20;98053.22;2122720;82;21128;-71
2021/12/01 14:42:11;;;;;;;5.87;3.67;;;;;;;5.16;80.12;98049.45;2127101;82;21597;-71